Nearby METAR Reports

 

KSLC - Salt Lake City, Utah, USA
Distance from station: SW 8mi, 13km
Updated: Sun, 20-Jan-2019 7:54pm MST
Partly cloudy
Partly cloudy
 Wind from SSE
Wind: SSE 12 mph , 19 km/h
Temperature: 39°F , 4°C
Wind Chill: 32°F , 0°C
Dew Point: 30°F , -1°C
Humidity: 70%
Barometer: 29.77 inHg , 1008.1 hPa
Clouds: Partly cloudy
Visibility: 10 miles , 16 km
Cloud details: Few Clouds 12000 ft
Partly cloudy 20000 ft
2019/01/21 02:54 KSLC 210254Z 15010KT 10SM FEW120 SCT200 04/M01 A2977 RMK AO2 SLP081 T00441006 58030
KU42 - Salt Lake Muni, Utah, USA
Distance from station: SSW 18mi, 28km
Updated: Sun, 20-Jan-2019 8:15pm MST
Clear
Clear
 Wind from SSW
Wind: SSW 10 mph , 17 km/h
Temperature: 41°F , 5°C
Wind Chill: 35°F , 2°C
Dew Point: 30°F , -1°C
Humidity: 66%
Barometer: 29.79 inHg , 1008.8 hPa
Clouds: Clear
Visibility: 10 miles , 16 km
2019/01/21 03:15 KU42 210315Z AUTO 20009KT 10SM CLR 05/M01 A2979 RMK AO1 T00491011
 
KHIF - Hill Afb/Ogden, Utah, USA
Distance from station: NNW 19mi, 30km
Updated: Sun, 20-Jan-2019 7:58pm MST
Clear
Clear
 Wind from calm
Wind: Calm
Temperature: 39°F , 4°C
Dew Point: 28°F , -2°C
Humidity: 65%
Barometer: 29.77 inHg , 1008.1 hPa
Clouds: Clear
Visibility: 10 miles , 16 km
2019/01/21 02:58 KHIF 210258Z AUTO 00000KT 10SM CLR 04/M02 A2977 RMK AO2 SLP078 T00371021 57029
KOGD - Ogden, Utah, USA
Distance from station: NNW 25mi, 40km
Updated: Sun, 20-Jan-2019 7:53pm MST
Clear
Clear
 Wind from S
Wind: S 8 mph , 13 km/h
Temperature: 36°F , 2°C
Wind Chill: 30°F , -1°C
Dew Point: 28°F , -2°C
Humidity: 75%
Barometer: 29.76 inHg , 1007.8 hPa
Clouds: Clear
Visibility: 10 miles , 16 km
2019/01/21 02:53 KOGD 210253Z 17007KT 10SM CLR 02/M02 A2976 RMK AO2 SLP082 T00171017 58030 $
 
K36U - Heber/Russ Mcdon, Utah, USA
Distance from station: SE 34mi, 55km
Updated: Wed, 11-Oct-2017 6:50pm MDT
NOT Current
Clear
Clear
 Wind from SSW
Wind: SSW 10 mph , 17 km/h, Gust: 18 mph , 30 km/h
Temperature: 63°F , 17°C
Dew Point: 16°F , -9°C
Humidity: 16%
Barometer: 29.87 inHg , 1011.5 hPa
Clouds: Clear
Visibility: 10 miles , 16 km
2017/10/12 00:50 K36U 120050Z AUTO 21009G16KT 10SM CLR 17/M09 A2987 RMK AO2
KPVU - Provo Muni, Utah, USA
Distance from station: S 45mi, 72km
Updated: Sun, 20-Jan-2019 7:56pm MST
Clear
Clear
 Wind from SSE
Wind: SSE 13 mph , 20 km/h
Temperature: 39°F , 4°C
Wind Chill: 31°F , -1°C
Dew Point: 27°F , -3°C
Humidity: 61%
Barometer: 29.82 inHg , 1009.8 hPa
Clouds: Clear
Visibility: 10 miles , 16 km
2019/01/21 02:56 KPVU 210256Z 15011KT 10SM CLR 04/M03 A2982 RMK AO2 SLP109 T00391028 58028